createdAt,value
2022-12-18T00:01:15.115Z,42.03
2022-12-18T00:03:42.036Z,43.80
2022-12-18T00:06:09.731Z,41.67
2022-12-18T00:08:36.264Z,39.15
2022-12-18T00:11:07.391Z,36.97
2022-12-18T00:13:34.551Z,39.25
2022-12-18T00:16:06.383Z,36.05
2022-12-18T00:18:33.744Z,40.50
2022-12-18T00:21:02.065Z,39.83
2022-12-18T00:23:29.523Z,43.57
2022-12-18T00:25:56.053Z,35.78
2022-12-18T00:28:22.552Z,35.30
2022-12-18T00:30:52.294Z,37.88
2022-12-18T00:33:19.171Z,41.17
2022-12-18T00:35:45.628Z,43.53
2022-12-18T00:38:12.076Z,47.35
2022-12-18T00:40:38.524Z,40.97
2022-12-18T00:43:04.967Z,43.80
2022-12-18T00:45:32.766Z,41.50
2022-12-18T00:47:59.326Z,39.97
2022-12-18T00:50:26.570Z,33.90
2022-12-18T00:52:53.059Z,43.30
2022-12-18T00:55:19.967Z,42.65
2022-12-18T00:57:46.475Z,47.03
2022-12-18T01:00:14.815Z,38.93
2022-12-18T01:02:42.092Z,41.72
2022-12-18T01:05:13.884Z,44.60
2022-12-18T01:07:40.718Z,42.47
2022-12-18T01:10:08.525Z,41.88
2022-12-18T01:12:35.187Z,41.40
2022-12-18T01:15:01.864Z,40.78
2022-12-18T01:17:28.454Z,45.67
2022-12-18T01:19:55.040Z,43.08
2022-12-18T01:22:21.667Z,40.92
2022-12-18T01:24:48.079Z,42.97
2022-12-18T01:27:14.804Z,40.53
2022-12-18T01:29:41.306Z,38.90
2022-12-18T01:32:07.815Z,42.08
2022-12-18T01:34:35.332Z,47.28
2022-12-18T01:37:04.335Z,46.43
2022-12-18T01:39:30.980Z,42.78
2022-12-18T01:42:03.537Z,49.25
2022-12-18T01:44:59.375Z,42.30
2022-12-18T01:47:44.746Z,45.33
2022-12-18T01:50:15.056Z,43.37
2022-12-18T01:52:44.726Z,41.80
2022-12-18T01:55:13.326Z,38.40
2022-12-18T01:57:41.322Z,37.17
2022-12-18T02:00:17.236Z,44.72
2022-12-18T02:02:45.957Z,36.57
2022-12-18T02:05:16.419Z,47.13
2022-12-18T02:08:16.174Z,34.22
2022-12-18T02:10:57.994Z,33.78
2022-12-18T02:13:44.832Z,41.45
2022-12-18T02:16:16.299Z,35.47
2022-12-18T02:18:48.969Z,41.13
2022-12-18T02:21:18.218Z,34.25
2022-12-18T02:24:01.335Z,39.10
2022-12-18T02:26:45.882Z,35.80
2022-12-18T02:29:36.258Z,34.90
2022-12-18T02:32:07.036Z,39.00
2022-12-18T02:34:39.288Z,37.88
2022-12-18T02:37:08.973Z,38.45
2022-12-18T02:39:39.179Z,41.17
2022-12-18T02:42:08.953Z,44.90
2022-12-18T02:44:43.604Z,37.80
2022-12-18T02:47:13.504Z,36.58
2022-12-18T02:50:08.922Z,34.28
2022-12-18T02:52:38.213Z,39.03
2022-12-18T02:55:25.896Z,39.15
2022-12-18T02:58:15.414Z,34.55
2022-12-18T03:01:10.823Z,36.58
2022-12-18T03:03:45.996Z,34.95
2022-12-18T03:06:26.336Z,35.77
2022-12-18T03:08:59.129Z,36.47
2022-12-18T03:11:47.954Z,34.97
2022-12-18T03:14:18.400Z,36.08
2022-12-18T03:16:47.048Z,30.55
2022-12-18T03:19:17.928Z,43.33
2022-12-18T03:21:50.513Z,35.90
2022-12-18T03:24:20.021Z,29.23
2022-12-18T03:26:50.223Z,33.28
2022-12-18T03:29:23.807Z,43.22
2022-12-18T03:31:57.961Z,42.30
2022-12-18T03:34:31.067Z,32.15
2022-12-18T03:36:59.014Z,34.30
2022-12-18T03:39:26.367Z,29.38
2022-12-18T03:41:56.384Z,30.00
2022-12-18T03:44:50.327Z,39.85
2022-12-18T03:47:25.874Z,28.95
2022-12-18T03:50:09.621Z,36.10
2022-12-18T03:52:54.998Z,32.72
2022-12-18T03:55:22.879Z,33.40
2022-12-18T03:57:56.954Z,30.47
2022-12-18T04:00:23.485Z,30.45
2022-12-18T04:02:56.247Z,28.55
2022-12-18T04:05:25.307Z,30.05
2022-12-18T04:07:53.499Z,30.23
2022-12-18T04:10:20.000Z,33.20
2022-12-18T04:12:46.553Z,28.25
2022-12-18T04:15:14.466Z,30.13
2022-12-18T04:17:48.609Z,32.27
2022-12-18T04:20:15.377Z,29.50
2022-12-18T04:22:42.627Z,29.45
2022-12-18T04:25:09.319Z,26.98
2022-12-18T04:27:35.829Z,26.67
2022-12-18T04:30:02.700Z,21.65
2022-12-18T04:32:29.152Z,28.88
2022-12-18T04:34:55.852Z,27.95
2022-12-18T04:37:22.288Z,23.60
2022-12-18T04:39:48.737Z,23.63
2022-12-18T04:42:15.212Z,23.83
2022-12-18T04:44:41.670Z,23.23
2022-12-18T04:47:08.636Z,21.27
2022-12-18T04:49:35.064Z,22.50
2022-12-18T04:52:01.515Z,26.52
2022-12-18T04:54:27.990Z,18.08
2022-12-18T04:56:54.445Z,23.42
2022-12-18T04:59:21.706Z,21.98
2022-12-18T05:01:48.351Z,20.77
2022-12-18T05:04:14.958Z,21.07
2022-12-18T05:06:41.381Z,21.70
2022-12-18T05:09:07.831Z,23.08
2022-12-18T05:11:34.289Z,17.85
2022-12-18T05:14:00.741Z,20.40
2022-12-18T05:16:27.223Z,25.65
2022-12-18T05:18:53.695Z,19.52
2022-12-18T05:21:20.177Z,20.80
2022-12-18T05:23:46.635Z,17.70
2022-12-18T05:26:17.409Z,17.48
2022-12-18T05:28:44.802Z,18.90
2022-12-18T05:31:11.561Z,21.15
2022-12-18T05:33:38.537Z,19.77
2022-12-18T05:36:07.740Z,18.65
2022-12-18T05:38:36.212Z,21.75
2022-12-18T05:41:04.577Z,17.55
2022-12-18T05:43:31.356Z,15.77
2022-12-18T05:45:58.483Z,19.20
2022-12-18T05:48:24.983Z,15.48
2022-12-18T05:50:52.061Z,17.70
2022-12-18T05:53:20.601Z,17.93
2022-12-18T05:55:47.949Z,14.40
2022-12-18T05:58:15.406Z,19.13
2022-12-18T06:00:44.437Z,16.92
2022-12-18T06:03:12.757Z,21.07
2022-12-18T06:05:41.848Z,17.63
2022-12-18T06:08:08.785Z,15.38
2022-12-18T06:10:35.402Z,14.25
2022-12-18T06:13:02.212Z,16.08
2022-12-18T06:15:28.689Z,17.65
2022-12-18T06:17:55.221Z,17.23
2022-12-18T06:20:21.720Z,13.20
2022-12-18T06:22:48.173Z,21.98
2022-12-18T06:25:14.670Z,16.85
2022-12-18T06:27:41.301Z,23.42
2022-12-18T06:30:09.537Z,18.87
2022-12-18T06:32:35.993Z,20.88
2022-12-18T06:35:02.437Z,17.67
2022-12-18T06:37:29.264Z,19.33
2022-12-18T06:39:57.468Z,19.83
2022-12-18T06:42:25.089Z,17.35
2022-12-18T06:44:51.616Z,15.00
2022-12-18T06:47:18.096Z,15.27
2022-12-18T06:49:44.565Z,20.27
2022-12-18T06:52:11.011Z,15.63
2022-12-18T06:54:37.602Z,17.67
2022-12-18T06:57:04.131Z,17.77
2022-12-18T06:59:30.657Z,16.52
2022-12-18T07:01:57.228Z,18.40
2022-12-18T07:04:28.916Z,14.65
2022-12-18T07:06:55.358Z,16.00
2022-12-18T07:09:22.048Z,16.30
2022-12-18T07:11:48.508Z,14.85
2022-12-18T07:14:14.980Z,17.33
2022-12-18T07:16:41.874Z,19.77
2022-12-18T07:19:08.379Z,20.48
2022-12-18T07:21:34.872Z,17.58
2022-12-18T07:24:01.358Z,16.53
2022-12-18T07:26:27.927Z,15.45
2022-12-18T07:28:58.612Z,17.13
2022-12-18T07:31:26.148Z,14.85
2022-12-18T07:33:53.083Z,16.87
2022-12-18T07:36:20.372Z,14.40
2022-12-18T07:38:50.827Z,17.15
2022-12-18T07:41:17.439Z,22.65
2022-12-18T07:43:44.423Z,21.57
2022-12-18T07:46:13.583Z,16.83
2022-12-18T07:48:41.307Z,15.02
2022-12-18T07:51:08.337Z,15.05
2022-12-18T07:53:37.216Z,16.90
2022-12-18T07:58:53.477Z,16.67
2022-12-18T08:01:20.073Z,15.57
2022-12-18T08:03:47.838Z,17.40
2022-12-18T08:06:14.961Z,16.80
2022-12-18T08:08:43.099Z,15.18
2022-12-18T08:11:09.600Z,13.37
2022-12-18T08:13:36.328Z,17.70
2022-12-18T08:16:06.338Z,15.98
2022-12-18T08:18:37.745Z,17.70
2022-12-18T08:21:11.383Z,18.08
2022-12-18T08:23:42.580Z,18.35
2022-12-18T08:26:10.111Z,15.60
2022-12-18T08:28:36.779Z,23.20
2022-12-18T08:31:03.322Z,17.58
2022-12-18T08:33:29.812Z,17.52
2022-12-18T08:35:56.256Z,18.25
2022-12-18T08:38:23.811Z,18.80
2022-12-18T08:40:50.261Z,17.70
2022-12-18T08:43:51.826Z,17.17
2022-12-18T08:46:19.640Z,18.05
2022-12-18T08:48:46.526Z,15.30
2022-12-18T08:51:13.537Z,16.75
2022-12-18T08:53:40.362Z,15.45
2022-12-18T08:56:07.644Z,17.17
2022-12-18T08:58:34.193Z,13.83
2022-12-18T09:01:05.803Z,15.15
2022-12-18T09:03:32.349Z,16.65
2022-12-18T09:05:59.019Z,15.82
2022-12-18T09:08:25.520Z,21.27
2022-12-18T09:10:52.644Z,17.38
2022-12-18T09:13:19.847Z,18.60
2022-12-18T09:15:48.918Z,17.88
2022-12-18T09:18:17.145Z,17.03
2022-12-18T09:20:44.416Z,18.60
2022-12-18T09:23:11.325Z,16.83
2022-12-18T09:25:38.847Z,19.40
2022-12-18T09:28:12.063Z,16.27
2022-12-18T09:30:40.173Z,19.08
2022-12-18T09:33:06.679Z,18.75
2022-12-18T09:35:36.796Z,18.33
2022-12-18T09:38:03.328Z,18.08
2022-12-18T09:40:35.927Z,20.93
2022-12-18T09:43:05.718Z,20.70
2022-12-18T09:45:43.703Z,19.50
2022-12-18T09:48:31.832Z,19.45
2022-12-18T09:51:05.125Z,19.58
2022-12-18T09:53:36.445Z,20.13
2022-12-18T09:56:05.249Z,17.13
2022-12-18T09:58:39.763Z,15.38
2022-12-18T10:01:19.413Z,16.42
2022-12-18T10:03:46.002Z,15.38
2022-12-18T10:06:24.976Z,17.00
2022-12-18T10:09:11.372Z,14.73
2022-12-18T10:11:48.220Z,17.35
2022-12-18T10:14:40.990Z,18.20
2022-12-18T10:17:27.849Z,13.40
2022-12-18T10:19:59.672Z,14.73
2022-12-18T10:22:38.199Z,16.83
2022-12-18T10:25:28.404Z,14.57
2022-12-18T10:28:01.250Z,18.05
2022-12-18T10:30:27.993Z,13.57
2022-12-18T10:32:57.060Z,15.33
2022-12-18T10:35:26.753Z,13.27
2022-12-18T10:38:14.954Z,13.90
2022-12-18T10:41:03.401Z,12.73
2022-12-18T10:43:31.291Z,12.07
2022-12-18T10:46:10.092Z,15.87
2022-12-18T10:48:48.658Z,13.07
2022-12-18T10:51:31.625Z,14.52
2022-12-18T10:54:18.587Z,15.50
2022-12-18T10:56:45.861Z,16.20
2022-12-18T10:59:17.864Z,11.07
2022-12-18T11:01:53.464Z,17.10
2022-12-18T11:04:32.597Z,12.20
2022-12-18T11:07:00.255Z,10.20
2022-12-18T11:09:29.746Z,12.00
2022-12-18T11:12:07.054Z,11.97
2022-12-18T11:14:46.868Z,14.35
2022-12-18T11:17:26.687Z,10.75
2022-12-18T11:20:27.636Z,10.27
2022-12-18T11:23:03.739Z,12.13
2022-12-18T11:25:32.480Z,12.20
2022-12-18T11:28:03.659Z,12.80
2022-12-18T11:30:35.214Z,13.52
2022-12-18T11:33:06.632Z,11.35
2022-12-18T11:35:43.101Z,11.73
2022-12-18T11:38:35.543Z,10.63
2022-12-18T11:41:07.348Z,11.20
2022-12-18T11:43:53.214Z,13.00
2022-12-18T11:46:48.158Z,11.65
2022-12-18T11:49:14.616Z,13.75
2022-12-18T11:51:50.235Z,12.63
2022-12-18T11:54:17.344Z,13.20
2022-12-18T11:56:59.550Z,13.43
2022-12-18T11:59:37.837Z,13.45
2022-12-18T12:02:13.171Z,11.23
2022-12-18T12:04:42.529Z,13.37
2022-12-18T12:07:41.148Z,11.32
2022-12-18T12:10:25.888Z,12.05
2022-12-18T12:13:10.146Z,11.80
2022-12-18T12:15:57.135Z,12.80
2022-12-18T12:18:55.710Z,13.40
2022-12-18T12:21:29.114Z,12.05
2022-12-18T12:24:25.652Z,13.45
2022-12-18T12:27:21.587Z,13.65
2022-12-18T12:30:17.534Z,13.85
2022-12-18T12:33:03.632Z,12.47
2022-12-18T12:36:15.623Z,15.00
2022-12-18T12:38:51.879Z,14.00
2022-12-18T12:41:41.709Z,12.07
2022-12-18T12:44:14.186Z,13.77
2022-12-18T12:46:42.783Z,14.20
2022-12-18T12:49:40.413Z,15.88
2022-12-18T12:52:13.487Z,12.85
2022-12-18T12:54:40.814Z,13.88
2022-12-18T12:57:16.614Z,14.05
2022-12-18T13:00:22.989Z,12.80
2022-12-18T13:02:55.329Z,18.13
2022-12-18T13:05:39.551Z,11.68
2022-12-18T13:08:09.972Z,16.20
2022-12-18T13:10:40.009Z,16.95
2022-12-18T13:13:10.454Z,14.20
2022-12-18T13:15:47.699Z,13.70
2022-12-18T13:18:19.361Z,12.77
2022-12-18T13:20:59.756Z,17.40
2022-12-18T13:23:34.627Z,13.15
2022-12-18T13:26:27.956Z,12.50
2022-12-18T13:28:55.991Z,16.05
2022-12-18T13:31:40.714Z,12.95
2022-12-18T13:34:26.126Z,14.57
2022-12-18T13:36:55.454Z,15.40
2022-12-18T13:39:34.753Z,14.23
2022-12-18T13:42:08.565Z,12.68
2022-12-18T13:44:40.945Z,11.55
2022-12-18T13:47:34.413Z,14.43
2022-12-18T13:50:03.156Z,14.70
2022-12-18T13:52:37.521Z,13.30
2022-12-18T13:55:16.025Z,12.25
2022-12-18T13:57:42.545Z,17.63
2022-12-18T14:00:20.894Z,13.13
2022-12-18T14:02:47.677Z,16.10
2022-12-18T14:05:26.783Z,15.53
2022-12-18T14:07:55.562Z,17.27
2022-12-18T14:10:48.627Z,17.83
2022-12-18T14:13:15.055Z,16.35
2022-12-18T14:15:45.303Z,18.17
2022-12-18T14:18:17.905Z,20.60
2022-12-18T14:20:49.216Z,16.73
2022-12-18T14:23:37.637Z,19.98
2022-12-18T14:26:23.299Z,17.40
2022-12-18T14:28:50.184Z,18.23
2022-12-18T14:31:25.849Z,17.80
2022-12-18T14:33:53.604Z,22.05
2022-12-18T14:36:24.163Z,17.10
2022-12-18T14:38:56.540Z,19.65
2022-12-18T14:41:24.539Z,16.20
2022-12-18T14:43:52.852Z,15.40
2022-12-18T14:46:40.226Z,15.90
2022-12-18T14:49:24.892Z,17.00
2022-12-18T14:51:59.962Z,15.07
2022-12-18T14:54:28.503Z,15.27
2022-12-18T14:57:03.997Z,12.63
2022-12-18T14:59:31.416Z,16.23
2022-12-18T15:02:21.314Z,18.02
2022-12-18T15:04:47.999Z,15.18
2022-12-18T15:07:14.734Z,15.18
2022-12-18T15:09:43.828Z,19.50
2022-12-18T15:12:41.075Z,22.17
2022-12-18T15:15:45.812Z,19.27
2022-12-18T15:18:17.757Z,17.42
2022-12-18T15:21:09.215Z,15.13
2022-12-18T15:23:49.120Z,15.90
2022-12-18T15:26:17.949Z,19.48
2022-12-18T15:28:56.408Z,15.85
2022-12-18T15:31:28.771Z,22.00
2022-12-18T15:33:55.199Z,20.75
2022-12-18T15:36:26.139Z,16.03
2022-12-18T15:38:55.487Z,21.80
2022-12-18T15:41:26.345Z,29.10
2022-12-18T15:43:53.886Z,33.55
2022-12-18T15:46:22.958Z,53.55
2022-12-18T15:48:50.409Z,50.70
2022-12-18T15:51:34.171Z,50.25
2022-12-18T15:54:04.669Z,64.30
2022-12-18T15:56:49.934Z,55.03
2022-12-18T15:59:21.301Z,28.65
2022-12-18T16:01:49.946Z,38.50
2022-12-18T16:04:20.980Z,35.28
2022-12-18T16:09:34.408Z,23.10
2022-12-18T16:12:01.043Z,15.93
2022-12-18T16:14:32.342Z,20.63
2022-12-18T16:17:01.586Z,17.77
2022-12-18T16:19:28.875Z,21.35
2022-12-18T16:21:57.392Z,25.85
2022-12-18T16:24:30.108Z,23.75
2022-12-18T16:26:59.805Z,20.43
2022-12-18T16:29:30.310Z,20.33
2022-12-18T16:32:01.428Z,18.08
2022-12-18T16:34:35.930Z,20.88
2022-12-18T16:37:06.176Z,18.33
2022-12-18T16:39:36.749Z,17.13
2022-12-18T16:42:17.899Z,18.38
2022-12-18T16:44:44.923Z,16.38
2022-12-18T16:47:11.801Z,19.30
2022-12-18T16:49:41.789Z,22.02
2022-12-18T16:52:09.169Z,21.70
2022-12-18T16:54:36.742Z,26.48
2022-12-18T16:57:05.400Z,28.92
2022-12-18T16:59:32.195Z,27.63
2022-12-18T17:01:58.807Z,23.05
2022-12-18T17:04:25.467Z,19.23
2022-12-18T17:06:52.074Z,18.92
2022-12-18T17:09:23.754Z,18.95
2022-12-18T17:11:50.321Z,27.65
2022-12-18T17:14:20.378Z,27.40
2022-12-18T17:16:49.145Z,21.90
2022-12-18T17:19:17.885Z,25.13
2022-12-18T17:21:47.675Z,21.08
2022-12-18T17:24:14.408Z,18.17
2022-12-18T17:26:40.936Z,19.88
2022-12-18T17:29:07.551Z,22.00
2022-12-18T17:31:34.852Z,23.50
2022-12-18T17:34:03.083Z,27.75
2022-12-18T17:36:32.224Z,23.70
2022-12-18T17:39:01.473Z,24.48
2022-12-18T17:41:29.565Z,21.93
2022-12-18T17:44:00.637Z,20.55
2022-12-18T17:46:29.291Z,22.23
2022-12-18T17:48:57.265Z,19.77
2022-12-18T17:51:23.724Z,20.98
2022-12-18T17:53:50.300Z,19.73
2022-12-18T17:56:20.317Z,21.25
2022-12-18T17:58:48.017Z,27.77
2022-12-18T18:01:16.974Z,23.95
2022-12-18T18:03:44.820Z,25.10
2022-12-18T18:06:11.946Z,21.03
2022-12-18T18:08:38.463Z,24.63
2022-12-18T18:11:30.984Z,20.33
2022-12-18T18:14:00.691Z,21.50
2022-12-18T18:16:35.790Z,21.20
2022-12-18T18:19:07.331Z,24.97
2022-12-18T18:21:34.555Z,25.05
2022-12-18T18:24:03.253Z,22.35
2022-12-18T18:26:34.118Z,28.48
2022-12-18T18:29:03.003Z,24.00
2022-12-18T18:31:34.748Z,25.00
2022-12-18T18:34:08.664Z,21.00
2022-12-18T18:36:35.180Z,30.75
2022-12-18T18:39:02.211Z,27.90
2022-12-18T18:41:30.422Z,24.27
2022-12-18T18:43:58.319Z,20.43
2022-12-18T18:46:25.521Z,23.15
2022-12-18T18:48:52.106Z,22.55
2022-12-18T18:51:21.205Z,28.85
2022-12-18T18:53:49.768Z,19.33
2022-12-18T18:56:56.457Z,22.77
2022-12-18T18:59:04.682Z,26.23
2022-12-18T19:01:31.216Z,19.13
2022-12-18T19:03:57.816Z,18.63
2022-12-18T19:06:27.378Z,24.45
2022-12-18T19:08:55.986Z,18.17
2022-12-18T19:11:42.091Z,17.92
2022-12-18T19:14:10.377Z,21.55
2022-12-18T19:16:37.187Z,28.27
2022-12-18T19:19:04.437Z,48.17
2022-12-18T19:21:34.312Z,36.93
2022-12-18T19:24:02.787Z,31.42
2022-12-18T19:26:29.873Z,26.45
2022-12-18T19:29:07.766Z,18.92
2022-12-18T19:31:36.973Z,22.38
2022-12-18T19:34:07.957Z,23.47
2022-12-18T19:36:36.325Z,21.80
2022-12-18T19:39:12.478Z,38.20
2022-12-18T19:41:39.935Z,28.10
2022-12-18T19:44:08.172Z,26.80
2022-12-18T19:46:35.491Z,28.83
2022-12-18T19:49:02.036Z,20.70
2022-12-18T19:51:30.559Z,23.98
2022-12-18T19:54:00.534Z,23.83
2022-12-18T19:56:30.846Z,22.67
2022-12-18T19:58:57.741Z,21.13
2022-12-18T20:01:26.513Z,22.05
2022-12-18T20:03:53.715Z,22.58
2022-12-18T20:06:27.469Z,22.20
2022-12-18T20:08:57.992Z,27.60
2022-12-18T20:11:28.309Z,41.13
2022-12-18T20:13:54.873Z,29.90
2022-12-18T20:16:21.432Z,32.53
2022-12-18T20:18:49.205Z,24.55
2022-12-18T20:21:16.144Z,23.77
2022-12-18T20:23:43.170Z,29.30
2022-12-18T20:26:10.181Z,28.95
2022-12-18T20:28:36.762Z,24.55
2022-12-18T20:31:08.321Z,24.67
2022-12-18T20:33:37.150Z,27.35
2022-12-18T20:36:06.391Z,22.77
2022-12-18T20:38:35.608Z,23.45
2022-12-18T20:41:07.523Z,27.73
2022-12-18T20:43:34.196Z,27.52
2022-12-18T20:46:09.119Z,26.75
2022-12-18T20:48:36.045Z,25.60
2022-12-18T20:51:08.582Z,23.92
2022-12-18T20:53:35.989Z,23.45
2022-12-18T20:56:08.774Z,25.63
2022-12-18T20:58:36.102Z,21.77
2022-12-18T21:01:04.741Z,24.83
2022-12-18T21:03:31.314Z,24.10
2022-12-18T21:05:57.874Z,21.35
2022-12-18T21:08:24.328Z,30.30
2022-12-18T21:10:50.825Z,26.27
2022-12-18T21:13:17.315Z,22.37
2022-12-18T21:15:45.178Z,21.80
2022-12-18T21:18:11.741Z,24.65
2022-12-18T21:20:38.254Z,25.77
2022-12-18T21:23:16.349Z,22.80
2022-12-18T21:25:43.638Z,23.60
2022-12-18T21:28:10.079Z,26.50
2022-12-18T21:30:36.789Z,25.10
2022-12-18T21:33:03.500Z,26.50
2022-12-18T21:35:30.986Z,25.75
2022-12-18T21:37:58.633Z,23.70
2022-12-18T21:40:25.212Z,24.98
2022-12-18T21:43:10.491Z,24.33
2022-12-18T21:45:41.503Z,22.27
2022-12-18T21:48:08.060Z,21.85
2022-12-18T21:50:34.540Z,25.53
2022-12-18T21:53:00.966Z,24.92
2022-12-18T21:55:27.375Z,27.55
2022-12-18T21:57:54.194Z,24.85
2022-12-18T22:00:20.772Z,27.73
2022-12-18T22:02:59.934Z,28.87
2022-12-18T22:05:34.845Z,21.90
2022-12-18T22:08:01.722Z,26.58
2022-12-18T22:10:28.631Z,23.00
2022-12-18T22:12:55.203Z,25.10
2022-12-18T22:15:22.056Z,23.53
2022-12-18T22:17:50.381Z,25.85
2022-12-18T22:20:17.813Z,23.45
2022-12-18T22:22:46.909Z,25.88
2022-12-18T22:25:13.515Z,26.60
2022-12-18T22:27:39.968Z,26.07
2022-12-18T22:30:07.131Z,24.30
2022-12-18T22:32:35.555Z,23.85
2022-12-18T22:35:09.192Z,25.10
2022-12-18T22:37:37.214Z,23.10
2022-12-18T22:40:06.085Z,25.83
2022-12-18T22:42:34.306Z,25.90
2022-12-18T22:45:00.793Z,21.92
2022-12-18T22:47:30.016Z,28.45
2022-12-18T22:49:57.948Z,27.48
2022-12-18T22:52:25.052Z,24.87
2022-12-18T22:54:53.394Z,24.13
2022-12-18T22:57:20.793Z,24.35
2022-12-18T22:59:47.273Z,27.95
2022-12-18T23:02:13.831Z,23.77
2022-12-18T23:04:40.348Z,22.90
2022-12-18T23:07:06.954Z,25.88
2022-12-18T23:09:33.838Z,27.50
2022-12-18T23:12:00.708Z,26.40
2022-12-18T23:14:28.395Z,21.58
2022-12-18T23:16:55.053Z,22.60
2022-12-18T23:19:23.516Z,22.27
2022-12-18T23:21:50.849Z,24.77
2022-12-18T23:24:17.356Z,26.88
2022-12-18T23:26:43.779Z,28.30
2022-12-18T23:29:10.335Z,25.10
2022-12-18T23:31:38.896Z,26.92
2022-12-18T23:34:06.310Z,27.02
2022-12-18T23:36:43.523Z,23.88
2022-12-18T23:39:15.629Z,22.52
2022-12-18T23:41:55.963Z,23.30
2022-12-18T23:44:22.429Z,23.63
2022-12-18T23:46:48.915Z,26.75
2022-12-18T23:49:15.439Z,23.08
2022-12-18T23:51:41.884Z,26.77
2022-12-18T23:54:10.167Z,24.27
2022-12-18T23:56:36.604Z,26.00
2022-12-18T23:59:03.249Z,27.60
